createdAt,value
2022-10-01T00:02:10.627Z,37.83
2022-10-01T00:04:37.891Z,37.78
2022-10-01T00:07:09.319Z,38.03
2022-10-01T00:09:35.716Z,37.94
2022-10-01T00:12:02.906Z,37.66
2022-10-01T00:14:29.461Z,37.89
2022-10-01T00:16:55.882Z,38.08
2022-10-01T00:19:22.890Z,37.66
2022-10-01T00:21:49.589Z,38.07
2022-10-01T00:24:15.999Z,37.94
2022-10-01T00:26:42.896Z,37.80
2022-10-01T00:29:13.020Z,37.89
2022-10-01T00:31:40.169Z,37.62
2022-10-01T00:34:06.727Z,38.04
2022-10-01T00:36:34.053Z,37.95
2022-10-01T00:39:00.925Z,37.80
2022-10-01T00:41:33.578Z,37.66
2022-10-01T00:44:32.390Z,37.32
2022-10-01T00:47:08.354Z,37.46
2022-10-01T00:49:37.832Z,37.82
2022-10-01T00:52:09.632Z,37.79
2022-10-01T00:54:50.815Z,37.61
2022-10-01T00:57:21.802Z,37.40
2022-10-01T00:59:49.922Z,37.47
2022-10-01T01:02:16.401Z,37.40
2022-10-01T01:04:42.935Z,37.84
2022-10-01T01:07:09.863Z,37.38
2022-10-01T01:09:41.811Z,37.42
2022-10-01T01:12:47.453Z,37.17
2022-10-01T01:15:21.586Z,37.21
2022-10-01T01:17:59.895Z,37.77
2022-10-01T01:20:49.907Z,37.24
2022-10-01T01:23:16.236Z,37.59
2022-10-01T01:25:51.795Z,37.70
2022-10-01T01:28:32.048Z,37.55
2022-10-01T01:31:04.665Z,37.54
2022-10-01T01:33:34.830Z,37.68
2022-10-01T01:36:06.887Z,37.76
2022-10-01T01:38:39.103Z,37.49
2022-10-01T01:41:07.848Z,37.55
2022-10-01T01:43:38.434Z,37.56
2022-10-01T01:46:07.594Z,37.56
2022-10-01T01:48:36.748Z,37.68
2022-10-01T01:51:11.124Z,37.60
2022-10-01T01:53:38.130Z,37.50
2022-10-01T01:56:06.122Z,37.82
2022-10-01T01:58:34.168Z,37.70
2022-10-01T02:01:02.272Z,37.89
2022-10-01T02:03:30.640Z,37.60
2022-10-01T02:06:13.855Z,37.35
2022-10-01T02:08:49.774Z,37.90
2022-10-01T02:11:26.973Z,37.65
2022-10-01T02:14:06.624Z,37.73
2022-10-01T02:16:46.675Z,37.56
2022-10-01T02:19:14.029Z,37.71
2022-10-01T02:22:00.319Z,37.57
2022-10-01T02:24:26.631Z,37.41
2022-10-01T02:26:55.811Z,37.40
2022-10-01T02:29:23.772Z,37.33
2022-10-01T02:31:53.436Z,37.40
2022-10-01T02:34:21.719Z,37.70
2022-10-01T02:36:48.970Z,37.44
2022-10-01T02:39:18.250Z,37.80
2022-10-01T02:41:47.990Z,37.73
2022-10-01T02:44:21.310Z,37.81
2022-10-01T02:47:03.894Z,37.60
2022-10-01T02:49:31.207Z,37.36
2022-10-01T02:52:19.235Z,37.38
2022-10-01T02:54:51.802Z,37.55
2022-10-01T02:57:26.947Z,37.29
2022-10-01T03:00:07.636Z,37.17
2022-10-01T03:02:34.205Z,37.58
2022-10-01T03:05:01.982Z,37.55
2022-10-01T03:07:31.165Z,37.34
2022-10-01T03:09:58.013Z,37.63
2022-10-01T03:12:24.404Z,37.35
2022-10-01T03:14:51.127Z,37.72
2022-10-01T03:17:17.965Z,37.63
2022-10-01T03:19:44.408Z,37.61
2022-10-01T03:22:14.064Z,37.45
2022-10-01T03:24:40.559Z,37.26
2022-10-01T03:27:06.972Z,37.68
2022-10-01T03:29:33.399Z,37.13
2022-10-01T03:31:59.919Z,37.77
2022-10-01T03:34:26.396Z,37.69
2022-10-01T03:36:52.831Z,37.53
2022-10-01T03:39:19.500Z,37.15
2022-10-01T03:41:46.139Z,37.34
2022-10-01T03:44:12.787Z,37.59
2022-10-01T03:46:39.230Z,37.47
2022-10-01T03:49:05.632Z,37.31
2022-10-01T03:51:32.455Z,37.49
2022-10-01T03:53:59.223Z,37.34
2022-10-01T03:56:26.149Z,37.60
2022-10-01T03:58:53.625Z,37.21
2022-10-01T04:01:20.484Z,37.26
2022-10-01T04:03:47.179Z,37.72
2022-10-01T04:06:13.835Z,37.55
2022-10-01T04:08:40.315Z,37.41
2022-10-01T04:11:07.603Z,37.54
2022-10-01T04:13:34.824Z,37.30
2022-10-01T04:16:05.209Z,37.12
2022-10-01T04:18:31.678Z,37.59
2022-10-01T04:20:58.215Z,37.58
2022-10-01T04:23:25.396Z,37.13
2022-10-01T04:25:51.766Z,37.67
2022-10-01T04:28:18.315Z,37.71
2022-10-01T04:30:46.328Z,37.84
2022-10-01T04:33:16.794Z,37.48
2022-10-01T04:35:43.579Z,37.72
2022-10-01T04:38:16.851Z,37.20
2022-10-01T04:40:43.793Z,37.43
2022-10-01T04:43:13.251Z,37.62
2022-10-01T04:45:39.880Z,37.48
2022-10-01T04:48:06.279Z,37.63
2022-10-01T04:50:33.144Z,37.74
2022-10-01T04:52:59.625Z,37.51
2022-10-01T04:55:26.179Z,37.99
2022-10-01T04:57:52.618Z,37.63
2022-10-01T05:00:21.971Z,37.90
2022-10-01T05:02:50.002Z,37.48
2022-10-01T05:05:17.997Z,38.11
2022-10-01T05:07:44.638Z,37.75
2022-10-01T05:10:19.685Z,37.88
2022-10-01T05:12:47.237Z,38.05
2022-10-01T05:15:15.383Z,38.05
2022-10-01T05:17:42.050Z,37.88
2022-10-01T05:20:15.538Z,37.70
2022-10-01T05:22:41.907Z,37.74
2022-10-01T05:25:08.638Z,38.20
2022-10-01T05:27:40.402Z,38.07
2022-10-01T05:30:09.187Z,38.43
2022-10-01T05:32:36.365Z,38.24
2022-10-01T05:35:03.967Z,38.68
2022-10-01T05:37:30.352Z,38.37
2022-10-01T05:39:56.727Z,38.16
2022-10-01T05:42:23.106Z,38.63
2022-10-01T05:44:50.044Z,38.82
2022-10-01T05:47:17.380Z,38.72
2022-10-01T05:49:44.491Z,38.84
2022-10-01T05:52:12.136Z,38.63
2022-10-01T05:54:38.730Z,38.79
2022-10-01T05:57:06.115Z,38.90
2022-10-01T05:59:32.548Z,38.88
2022-10-01T06:01:59.116Z,39.22
2022-10-01T06:04:25.655Z,38.86
2022-10-01T06:06:53.503Z,38.75
2022-10-01T06:09:19.908Z,39.25
2022-10-01T06:11:48.867Z,39.10
2022-10-01T06:14:18.906Z,39.67
2022-10-01T06:16:46.896Z,39.38
2022-10-01T06:19:13.463Z,39.68
2022-10-01T06:21:39.839Z,39.50
2022-10-01T06:24:06.270Z,39.40
2022-10-01T06:26:32.690Z,39.43
2022-10-01T06:28:59.075Z,39.58
2022-10-01T06:31:25.519Z,39.46
2022-10-01T06:33:51.963Z,39.21
2022-10-01T06:36:18.364Z,38.91
2022-10-01T06:38:48.424Z,39.02
2022-10-01T06:41:15.320Z,39.29
2022-10-01T06:43:41.692Z,39.03
2022-10-01T06:46:08.541Z,39.63
2022-10-01T06:48:36.596Z,39.76
2022-10-01T06:51:03.586Z,39.69
2022-10-01T06:53:30.091Z,39.33
2022-10-01T06:55:56.897Z,39.17
2022-10-01T06:58:27.966Z,39.90
2022-10-01T07:01:02.075Z,39.30
2022-10-01T07:03:28.737Z,39.31
2022-10-01T07:06:01.455Z,39.50
2022-10-01T07:08:27.931Z,39.39
2022-10-01T07:10:59.547Z,39.43
2022-10-01T07:13:25.952Z,39.87
2022-10-01T07:15:52.333Z,40.23
2022-10-01T07:18:18.755Z,39.99
2022-10-01T07:20:45.141Z,40.16
2022-10-01T07:23:13.495Z,40.25
2022-10-01T07:25:41.502Z,40.28
2022-10-01T07:28:16.310Z,39.84
2022-10-01T07:30:56.652Z,39.84
2022-10-01T07:33:23.166Z,39.85
2022-10-01T07:35:49.538Z,39.43
2022-10-01T07:38:16.599Z,39.85
2022-10-01T07:40:43.179Z,40.09
2022-10-01T07:43:09.569Z,39.93
2022-10-01T07:45:36.007Z,39.75
2022-10-01T07:48:03.154Z,39.82
2022-10-01T07:50:32.685Z,39.62
2022-10-01T07:52:59.916Z,39.60
2022-10-01T07:55:28.103Z,40.13
2022-10-01T07:57:59.509Z,40.12
2022-10-01T08:00:27.374Z,40.05
2022-10-01T08:02:56.052Z,39.95
2022-10-01T08:05:29.002Z,39.81
2022-10-01T08:08:00.434Z,40.25
2022-10-01T08:10:27.850Z,40.21
2022-10-01T08:13:01.337Z,39.99
2022-10-01T08:15:28.774Z,40.29
2022-10-01T08:17:55.232Z,39.93
2022-10-01T08:20:21.602Z,40.35
2022-10-01T08:22:48.038Z,40.66
2022-10-01T08:25:14.483Z,40.17
2022-10-01T08:27:42.049Z,40.09
2022-10-01T08:30:08.890Z,40.23
2022-10-01T08:32:35.295Z,40.31
2022-10-01T08:35:01.682Z,40.11
2022-10-01T08:37:29.283Z,40.21
2022-10-01T08:39:56.588Z,40.18
2022-10-01T08:42:25.890Z,40.27
2022-10-01T08:44:53.091Z,40.23
2022-10-01T08:47:33.767Z,39.67
2022-10-01T08:50:26.023Z,40.58
2022-10-01T08:52:57.725Z,40.09
2022-10-01T08:55:27.826Z,40.39
2022-10-01T08:57:58.802Z,40.49
2022-10-01T09:00:27.274Z,40.11
2022-10-01T09:02:53.970Z,39.79
2022-10-01T09:05:39.343Z,40.40
2022-10-01T09:08:43.791Z,39.95
2022-10-01T09:11:25.432Z,40.00
2022-10-01T09:13:59.724Z,40.47
2022-10-01T09:16:37.537Z,39.84
2022-10-01T09:19:29.764Z,40.07
2022-10-01T09:21:58.977Z,40.31
2022-10-01T09:24:28.391Z,40.06
2022-10-01T09:26:55.250Z,40.13
2022-10-01T09:29:33.830Z,39.97
2022-10-01T09:32:03.365Z,40.31
2022-10-01T09:34:41.011Z,39.98
2022-10-01T09:37:27.607Z,39.70
2022-10-01T09:40:19.862Z,39.59
2022-10-01T09:42:47.518Z,40.12
2022-10-01T09:45:18.670Z,39.90
2022-10-01T09:47:51.330Z,40.04
2022-10-01T09:50:45.022Z,39.75
2022-10-01T09:53:20.037Z,40.34
2022-10-01T09:55:53.527Z,40.13
2022-10-01T09:58:26.678Z,40.34
2022-10-01T10:00:54.650Z,40.47
2022-10-01T10:03:28.424Z,40.20
2022-10-01T10:05:54.977Z,40.55
2022-10-01T10:08:31.154Z,40.50
2022-10-01T10:11:00.631Z,40.42
2022-10-01T10:13:27.081Z,40.54
2022-10-01T10:15:59.540Z,40.28
2022-10-01T10:18:35.266Z,40.13
2022-10-01T10:21:10.787Z,40.56
2022-10-01T10:23:47.510Z,40.33
2022-10-01T10:26:19.510Z,40.02
2022-10-01T10:28:46.696Z,40.80
2022-10-01T10:31:20.223Z,40.67
2022-10-01T10:34:05.576Z,40.34
2022-10-01T10:36:35.691Z,40.93
2022-10-01T10:39:06.187Z,40.59
2022-10-01T10:41:35.591Z,40.92
2022-10-01T10:44:06.428Z,41.16
2022-10-01T10:46:35.432Z,40.75
2022-10-01T10:49:07.996Z,40.55
2022-10-01T10:52:17.509Z,40.14
2022-10-01T10:54:48.525Z,40.59
2022-10-01T10:57:28.732Z,40.72
2022-10-01T11:00:07.643Z,40.74
2022-10-01T11:02:34.121Z,40.57
2022-10-01T11:05:14.828Z,40.41
2022-10-01T11:07:45.082Z,40.87
2022-10-01T11:10:28.180Z,40.16
2022-10-01T11:13:13.475Z,40.53
2022-10-01T11:15:58.340Z,40.57
2022-10-01T11:18:43.705Z,40.78
2022-10-01T11:21:16.031Z,40.73
2022-10-01T11:23:42.399Z,41.63
2022-10-01T11:26:16.466Z,40.78
2022-10-01T11:28:46.005Z,41.51
2022-10-01T11:31:37.573Z,41.52
2022-10-01T11:34:50.256Z,41.55
2022-10-01T11:37:28.536Z,41.47
2022-10-01T11:39:58.419Z,42.12
2022-10-01T11:42:35.478Z,41.73
2022-10-01T11:45:42.276Z,41.44
2022-10-01T11:48:19.203Z,42.43
2022-10-01T11:50:51.696Z,42.50
2022-10-01T11:53:20.887Z,43.13
2022-10-01T11:56:19.178Z,42.99
2022-10-01T11:58:50.832Z,43.49
2022-10-01T12:01:29.274Z,43.16
2022-10-01T12:04:06.812Z,43.98
2022-10-01T12:06:43.396Z,42.79
2022-10-01T12:09:21.702Z,43.64
2022-10-01T12:12:03.705Z,43.54
2022-10-01T12:14:42.981Z,43.75
2022-10-01T12:17:34.971Z,42.68
2022-10-01T12:20:04.584Z,43.40
2022-10-01T12:22:34.590Z,43.49
2022-10-01T12:25:01.555Z,43.22
2022-10-01T12:27:35.810Z,43.55
2022-10-01T12:30:09.927Z,43.61
2022-10-01T12:32:47.697Z,42.84
2022-10-01T12:35:36.171Z,43.01
2022-10-01T12:38:40.765Z,43.28
2022-10-01T12:41:31.561Z,42.99
2022-10-01T12:44:03.927Z,43.78
2022-10-01T12:46:40.095Z,42.86
2022-10-01T12:49:12.663Z,43.39
2022-10-01T12:51:43.998Z,42.98
2022-10-01T12:54:46.356Z,42.95
2022-10-01T12:57:33.020Z,43.27
2022-10-01T13:00:04.972Z,43.44
2022-10-01T13:03:13.045Z,42.87
2022-10-01T13:05:48.402Z,43.07
2022-10-01T13:08:17.673Z,42.84
2022-10-01T13:11:25.343Z,42.89
2022-10-01T13:13:53.596Z,44.08
2022-10-01T13:16:43.794Z,43.26
2022-10-01T13:19:17.956Z,43.05
2022-10-01T13:22:07.665Z,42.92
2022-10-01T13:24:52.814Z,42.67
2022-10-01T13:27:35.797Z,42.79
2022-10-01T13:30:13.705Z,43.11
2022-10-01T13:32:57.784Z,43.25
2022-10-01T13:35:24.416Z,43.32
2022-10-01T13:37:50.950Z,43.10
2022-10-01T13:40:32.119Z,43.26
2022-10-01T13:43:16.217Z,43.14
2022-10-01T13:45:48.464Z,43.62
2022-10-01T13:48:19.340Z,43.48
2022-10-01T13:51:05.121Z,43.22
2022-10-01T13:53:36.208Z,43.16
2022-10-01T13:56:03.657Z,44.06
2022-10-01T13:58:29.961Z,43.17
2022-10-01T14:00:59.194Z,43.25
2022-10-01T14:03:43.521Z,43.43
2022-10-01T14:06:24.398Z,42.75
2022-10-01T14:09:05.428Z,42.83
2022-10-01T14:11:54.419Z,42.35
2022-10-01T14:14:46.317Z,42.56
2022-10-01T14:17:14.099Z,42.29
2022-10-01T14:19:47.132Z,42.54
2022-10-01T14:22:32.520Z,42.33
2022-10-01T14:25:15.444Z,42.99
2022-10-01T14:27:44.586Z,42.78
2022-10-01T14:30:15.899Z,42.88
2022-10-01T14:33:12.855Z,42.69
2022-10-01T14:36:00.922Z,42.12
2022-10-01T14:38:28.421Z,43.16
2022-10-01T14:40:54.875Z,42.69
2022-10-01T14:43:26.683Z,42.79
2022-10-01T14:45:54.943Z,42.20
2022-10-01T14:48:22.938Z,42.46
2022-10-01T14:50:53.230Z,43.02
2022-10-01T14:53:22.871Z,42.56
2022-10-01T14:55:53.723Z,42.45
2022-10-01T14:58:26.340Z,43.25
2022-10-01T15:00:55.192Z,43.45
2022-10-01T15:03:21.725Z,44.01
2022-10-01T15:05:49.708Z,43.63
2022-10-01T15:08:16.125Z,44.27
2022-10-01T15:11:08.062Z,44.19
2022-10-01T15:13:41.890Z,44.82
2022-10-01T15:16:14.032Z,45.53
2022-10-01T15:19:09.283Z,44.75
2022-10-01T15:21:45.356Z,45.22
2022-10-01T15:24:36.188Z,45.30
2022-10-01T15:27:02.831Z,45.28
2022-10-01T15:29:29.297Z,45.69
2022-10-01T15:31:57.644Z,45.93
2022-10-01T15:34:25.771Z,45.66
2022-10-01T15:36:53.660Z,45.98
2022-10-01T15:39:40.145Z,44.74
2022-10-01T15:42:31.599Z,44.87
2022-10-01T15:45:07.166Z,44.91
2022-10-01T15:47:49.289Z,45.29
2022-10-01T15:50:38.046Z,45.04
2022-10-01T15:53:19.569Z,44.28
2022-10-01T15:55:49.462Z,44.65
2022-10-01T15:58:19.515Z,44.64
2022-10-01T16:01:21.522Z,44.29
2022-10-01T16:03:56.107Z,44.38
2022-10-01T16:06:27.123Z,44.15
2022-10-01T16:09:05.521Z,43.86
2022-10-01T16:11:51.119Z,44.46
2022-10-01T16:14:28.199Z,43.76
2022-10-01T16:17:19.628Z,43.81
2022-10-01T16:19:52.233Z,44.12
2022-10-01T16:22:33.644Z,44.06
2022-10-01T16:25:07.448Z,44.25
2022-10-01T16:27:42.978Z,43.76
2022-10-01T16:30:11.996Z,44.05
2022-10-01T16:32:38.429Z,43.96
2022-10-01T16:35:25.432Z,43.71
2022-10-01T16:37:54.834Z,44.05
2022-10-01T16:40:25.295Z,44.02
2022-10-01T16:42:52.722Z,43.78
2022-10-01T16:45:24.948Z,44.20
2022-10-01T16:47:52.678Z,43.83
2022-10-01T16:50:23.895Z,43.68
2022-10-01T16:52:55.598Z,43.54
2022-10-01T16:55:24.526Z,43.82
2022-10-01T16:57:57.249Z,44.95
2022-10-01T17:00:26.747Z,43.84
2022-10-01T17:02:54.123Z,43.84
2022-10-01T17:05:35.550Z,43.51
2022-10-01T17:08:04.357Z,43.33
2022-10-01T17:10:35.839Z,43.71
2022-10-01T17:13:03.557Z,43.91
2022-10-01T17:15:30.738Z,43.98
2022-10-01T17:17:58.444Z,43.54
2022-10-01T17:20:28.418Z,43.96
2022-10-01T17:22:56.544Z,43.76
2022-10-01T17:25:30.999Z,43.96
2022-10-01T17:27:58.728Z,43.52
2022-10-01T17:30:25.385Z,44.21
2022-10-01T17:32:51.986Z,44.07
2022-10-01T17:35:18.391Z,44.12
2022-10-01T17:37:44.791Z,43.74
2022-10-01T17:40:11.347Z,43.64
2022-10-01T17:42:38.131Z,44.43
2022-10-01T17:45:07.393Z,44.50
2022-10-01T17:47:34.085Z,43.70
2022-10-01T17:50:00.653Z,43.38
2022-10-01T17:52:30.050Z,43.76
2022-10-01T17:54:56.435Z,43.76
2022-10-01T17:57:23.210Z,43.65
2022-10-01T17:59:49.579Z,44.03
2022-10-01T18:02:40.008Z,43.65
2022-10-01T18:05:04.125Z,43.37
2022-10-01T18:07:30.516Z,43.52
2022-10-01T18:09:56.870Z,43.65
2022-10-01T18:12:23.238Z,44.02
2022-10-01T18:14:49.810Z,43.87
2022-10-01T18:17:16.227Z,43.59
2022-10-01T18:19:57.862Z,43.98
2022-10-01T18:22:24.439Z,43.84
2022-10-01T18:24:50.853Z,44.38
2022-10-01T18:27:17.594Z,43.46
2022-10-01T18:29:43.985Z,43.51
2022-10-01T18:32:18.698Z,43.89
2022-10-01T18:34:47.408Z,43.35
2022-10-01T18:37:25.858Z,43.05
2022-10-01T18:40:13.143Z,43.20
2022-10-01T18:42:49.353Z,43.57
2022-10-01T18:45:24.372Z,43.43
2022-10-01T18:48:03.793Z,43.08
2022-10-01T18:50:59.718Z,42.92
2022-10-01T18:53:48.190Z,42.94
2022-10-01T18:56:29.418Z,43.06
2022-10-01T18:59:14.071Z,42.66
2022-10-01T19:01:50.265Z,43.02
2022-10-01T19:05:05.006Z,42.83
2022-10-01T19:07:52.583Z,42.99
2022-10-01T19:10:22.263Z,43.42
2022-10-01T19:13:13.718Z,43.30
2022-10-01T19:16:02.205Z,43.14
2022-10-01T19:18:51.830Z,43.02
2022-10-01T19:21:45.808Z,43.10
2022-10-01T19:24:30.691Z,42.84
2022-10-01T19:27:13.568Z,43.00
2022-10-01T19:30:03.262Z,42.39
2022-10-01T19:32:52.759Z,42.98
2022-10-01T19:35:39.466Z,42.96
2022-10-01T19:38:14.707Z,42.78
2022-10-01T19:40:46.213Z,43.20
2022-10-01T19:43:26.218Z,42.72
2022-10-01T19:46:16.509Z,43.12
2022-10-01T19:48:48.963Z,43.00
2022-10-01T19:51:20.135Z,42.78
2022-10-01T19:53:50.684Z,42.71
2022-10-01T19:56:22.996Z,42.59
2022-10-01T19:58:49.410Z,43.13
2022-10-01T20:01:20.554Z,43.00
2022-10-01T20:03:57.258Z,43.00
2022-10-01T20:06:37.262Z,42.77
2022-10-01T20:09:17.094Z,43.15
2022-10-01T20:11:54.721Z,43.00
2022-10-01T20:14:51.148Z,43.27
2022-10-01T20:17:32.670Z,43.41
2022-10-01T20:20:17.059Z,43.25
2022-10-01T20:23:19.493Z,42.91
2022-10-01T20:25:53.568Z,43.50
2022-10-01T20:28:30.385Z,43.38
2022-10-01T20:31:08.734Z,43.25
2022-10-01T20:34:01.484Z,43.08
2022-10-01T20:36:41.647Z,43.54
2022-10-01T20:39:27.969Z,43.42
2022-10-01T20:41:56.191Z,43.65
2022-10-01T20:44:27.880Z,43.33
2022-10-01T20:47:00.030Z,43.23
2022-10-01T20:49:51.310Z,42.97
2022-10-01T20:52:31.687Z,43.48
2022-10-01T20:55:06.571Z,43.26
2022-10-01T20:57:42.002Z,43.28
2022-10-01T21:00:19.364Z,43.56
2022-10-01T21:02:51.129Z,43.72
2022-10-01T21:05:34.294Z,43.42
2022-10-01T21:08:11.031Z,43.54
2022-10-01T21:10:46.469Z,43.10
2022-10-01T21:13:53.923Z,42.84
2022-10-01T21:16:27.956Z,42.93
2022-10-01T21:18:54.337Z,42.90
2022-10-01T21:21:35.223Z,42.88
2022-10-01T21:24:27.009Z,42.53
2022-10-01T21:27:05.575Z,42.71
2022-10-01T21:29:47.346Z,42.95
2022-10-01T21:32:44.506Z,42.94
2022-10-01T21:35:44.626Z,42.61
2022-10-01T21:38:28.529Z,43.16
2022-10-01T21:41:14.207Z,42.71
2022-10-01T21:43:57.487Z,42.79
2022-10-01T21:46:42.496Z,42.70
2022-10-01T21:49:24.897Z,42.84
2022-10-01T21:52:04.523Z,42.80
2022-10-01T21:54:54.831Z,42.66
2022-10-01T21:57:55.408Z,42.46
2022-10-01T22:00:26.815Z,42.52
2022-10-01T22:03:41.068Z,42.24
2022-10-01T22:06:28.901Z,42.21
2022-10-01T22:08:55.234Z,42.85
2022-10-01T22:11:29.693Z,42.58
2022-10-01T22:14:01.390Z,42.44
2022-10-01T22:16:40.807Z,42.23
2022-10-01T22:19:13.758Z,42.35
2022-10-01T22:21:49.783Z,42.33
2022-10-01T22:24:19.187Z,42.76
2022-10-01T22:26:53.779Z,42.59
2022-10-01T22:29:27.560Z,42.41
2022-10-01T22:31:58.921Z,42.60
2022-10-01T22:34:34.818Z,42.51
2022-10-01T22:37:25.604Z,42.03
2022-10-01T22:40:01.903Z,42.16
2022-10-01T22:42:36.994Z,42.31
2022-10-01T22:45:13.622Z,42.09
2022-10-01T22:48:08.232Z,42.44
2022-10-01T22:51:04.300Z,41.95
2022-10-01T22:53:41.940Z,42.29
2022-10-01T22:56:13.699Z,42.00
2022-10-01T22:59:04.392Z,42.01
2022-10-01T23:01:49.075Z,41.79
2022-10-01T23:04:28.438Z,41.56
2022-10-01T23:07:17.723Z,41.63
2022-10-01T23:09:58.286Z,41.55
2022-10-01T23:12:30.724Z,41.86
2022-10-01T23:15:13.594Z,41.92
2022-10-01T23:18:06.948Z,41.83
2022-10-01T23:20:54.795Z,41.85
2022-10-01T23:23:32.181Z,41.91
2022-10-01T23:26:19.160Z,41.64
2022-10-01T23:28:48.214Z,42.01
2022-10-01T23:31:32.892Z,41.25
2022-10-01T23:34:15.297Z,41.71
2022-10-01T23:36:52.495Z,41.44
2022-10-01T23:39:30.984Z,41.51
2022-10-01T23:42:15.726Z,41.63
2022-10-01T23:45:00.279Z,41.75
2022-10-01T23:47:35.087Z,41.65
2022-10-01T23:50:03.567Z,41.60
2022-10-01T23:52:45.277Z,41.23
2022-10-01T23:55:36.273Z,41.28
2022-10-01T23:58:07.765Z,41.26
